createdAt,value
2023-01-23T00:00:03.318Z,0.00
2023-01-23T00:01:03.299Z,0.00
2023-01-23T00:02:03.294Z,0.00
2023-01-23T00:03:03.302Z,0.00
2023-01-23T00:04:03.336Z,0.00
2023-01-23T00:05:03.267Z,0.00
2023-01-23T00:06:03.257Z,0.00
2023-01-23T00:07:03.250Z,0.00
2023-01-23T00:08:03.258Z,0.00
2023-01-23T00:09:03.218Z,0.00
2023-01-23T00:10:03.208Z,0.00
2023-01-23T00:11:03.197Z,0.00
2023-01-23T00:12:03.190Z,0.00
2023-01-23T00:13:03.192Z,0.00
2023-01-23T00:14:03.192Z,0.00
2023-01-23T00:15:04.842Z,0.00
2023-01-23T00:16:03.211Z,0.00
2023-01-23T00:17:03.138Z,0.00
2023-01-23T00:18:03.151Z,0.00
2023-01-23T00:19:03.133Z,0.00
2023-01-23T00:20:03.110Z,0.00
2023-01-23T00:21:03.107Z,0.00
2023-01-23T00:22:03.091Z,0.00
2023-01-23T00:23:03.098Z,0.00
2023-01-23T00:24:03.062Z,0.00
2023-01-23T00:25:03.063Z,0.00
2023-01-23T00:26:03.044Z,0.00
2023-01-23T00:27:03.036Z,0.00
2023-01-23T00:28:03.038Z,0.00
2023-01-23T00:29:03.043Z,0.00
2023-01-23T00:30:03.004Z,0.00
2023-01-23T00:31:03.111Z,0.00
2023-01-23T00:32:03.029Z,0.00
2023-01-23T00:33:02.987Z,0.00
2023-01-23T00:34:02.969Z,0.00
2023-01-23T00:35:02.957Z,0.00
2023-01-23T00:36:02.940Z,0.00
2023-01-23T00:37:02.939Z,0.00
2023-01-23T00:38:02.995Z,0.00
2023-01-23T00:39:02.912Z,0.00
2023-01-23T00:40:02.896Z,0.00
2023-01-23T00:41:02.895Z,0.00
2023-01-23T00:42:02.884Z,0.00
2023-01-23T00:43:02.887Z,0.00
2023-01-23T00:44:02.857Z,0.00
2023-01-23T00:45:02.872Z,0.00
2023-01-23T00:46:02.897Z,0.00
2023-01-23T00:47:02.839Z,0.00
2023-01-23T00:48:02.837Z,0.00
2023-01-23T00:49:02.810Z,0.00
2023-01-23T00:50:02.796Z,0.00
2023-01-23T00:51:02.824Z,0.00
2023-01-23T00:52:02.771Z,0.00
2023-01-23T00:53:02.789Z,0.00
2023-01-23T00:54:02.775Z,0.00
2023-01-23T00:55:02.740Z,0.00
2023-01-23T00:56:02.739Z,0.00
2023-01-23T00:57:02.731Z,0.00
2023-01-23T00:58:02.734Z,0.00
2023-01-23T00:59:02.702Z,0.00
2023-01-23T01:00:02.696Z,0.00
2023-01-23T01:01:02.698Z,0.00
2023-01-23T01:02:02.768Z,0.00
2023-01-23T01:03:02.702Z,0.00
2023-01-23T01:04:02.655Z,0.00
2023-01-23T01:05:02.652Z,0.00
2023-01-23T01:06:02.634Z,0.00
2023-01-23T01:07:02.630Z,0.00
2023-01-23T01:08:02.634Z,0.00
2023-01-23T01:09:02.649Z,0.00
2023-01-23T01:10:02.609Z,0.00
2023-01-23T01:11:02.601Z,0.00
2023-01-23T01:12:02.566Z,0.00
2023-01-23T01:13:02.583Z,0.00
2023-01-23T01:14:02.569Z,0.00
2023-01-23T01:15:02.545Z,0.00
2023-01-23T01:16:02.590Z,0.00
2023-01-23T01:17:02.531Z,0.00
2023-01-23T01:18:02.547Z,0.00
2023-01-23T01:19:02.508Z,0.00
2023-01-23T01:20:02.515Z,0.00
2023-01-23T01:21:02.522Z,0.00
2023-01-23T01:22:02.477Z,0.00
2023-01-23T01:23:02.485Z,0.00
2023-01-23T01:24:02.455Z,0.00
2023-01-23T01:25:02.443Z,0.00
2023-01-23T01:26:02.443Z,0.00
2023-01-23T01:27:02.424Z,0.00
2023-01-23T01:28:02.431Z,0.00
2023-01-23T01:29:02.410Z,0.00
2023-01-23T01:30:02.387Z,0.00
2023-01-23T01:31:02.446Z,0.00
2023-01-23T01:32:02.418Z,0.00
2023-01-23T01:33:02.380Z,0.00
2023-01-23T01:34:02.344Z,0.00
2023-01-23T01:35:02.339Z,0.00
2023-01-23T01:36:02.323Z,0.00
2023-01-23T01:37:02.333Z,0.00
2023-01-23T01:38:02.336Z,0.00
2023-01-23T01:39:02.292Z,0.00
2023-01-23T01:40:02.281Z,0.00
2023-01-23T01:41:02.273Z,0.00
2023-01-23T01:42:02.262Z,0.00
2023-01-23T01:43:02.286Z,0.00
2023-01-23T01:44:02.243Z,0.00
2023-01-23T01:45:02.240Z,0.00
2023-01-23T01:46:02.232Z,0.00
2023-01-23T01:47:02.216Z,0.00
2023-01-23T01:48:02.198Z,0.00
2023-01-23T01:49:02.230Z,0.00
2023-01-23T01:50:02.195Z,0.00
2023-01-23T01:51:02.189Z,0.00
2023-01-23T01:52:02.157Z,0.00
2023-01-23T01:53:02.158Z,0.00
2023-01-23T01:54:02.160Z,0.00
2023-01-23T01:55:02.139Z,0.00
2023-01-23T01:56:02.124Z,0.00
2023-01-23T01:57:02.116Z,0.00
2023-01-23T01:58:02.097Z,0.00
2023-01-23T01:59:02.107Z,0.00
2023-01-23T02:00:02.077Z,0.00
2023-01-23T02:01:02.119Z,0.00
2023-01-23T02:02:02.140Z,0.00
2023-01-23T02:03:02.069Z,0.00
2023-01-23T02:04:02.065Z,0.00
2023-01-23T02:05:02.040Z,0.00
2023-01-23T02:06:02.018Z,0.00
2023-01-23T02:07:02.010Z,0.00
2023-01-23T02:08:01.989Z,0.00
2023-01-23T02:09:02.010Z,0.00
2023-01-23T02:10:01.974Z,0.00
2023-01-23T02:11:01.973Z,0.00
2023-01-23T02:12:01.950Z,0.00
2023-01-23T02:13:01.952Z,0.00
2023-01-23T02:14:01.963Z,0.00
2023-01-23T02:15:01.932Z,0.00
2023-01-23T02:16:01.974Z,0.00
2023-01-23T02:17:01.915Z,0.00
2023-01-23T02:18:01.893Z,0.00
2023-01-23T02:19:01.923Z,0.00
2023-01-23T02:20:01.863Z,0.00
2023-01-23T02:21:01.864Z,0.00
2023-01-23T02:22:01.855Z,0.00
2023-01-23T02:23:01.847Z,0.00
2023-01-23T02:24:01.855Z,0.00
2023-01-23T02:25:01.830Z,0.00
2023-01-23T02:26:01.808Z,0.00
2023-01-23T02:27:01.811Z,0.00
2023-01-23T02:28:01.790Z,0.00
2023-01-23T02:29:01.795Z,0.00
2023-01-23T02:30:01.763Z,0.00
2023-01-23T02:31:01.851Z,0.00
2023-01-23T02:32:01.763Z,0.00
2023-01-23T02:33:01.738Z,0.00
2023-01-23T02:34:01.753Z,0.00
2023-01-23T02:35:01.717Z,0.00
2023-01-23T02:36:01.705Z,0.00
2023-01-23T02:37:01.696Z,0.00
2023-01-23T02:38:01.689Z,0.00
2023-01-23T02:39:01.698Z,0.00
2023-01-23T02:40:01.655Z,0.00
2023-01-23T02:41:01.659Z,0.00
2023-01-23T02:42:01.639Z,0.00
2023-01-23T02:43:01.637Z,0.00
2023-01-23T02:44:01.639Z,0.00
2023-01-23T02:45:01.615Z,0.00
2023-01-23T02:46:01.685Z,0.00
2023-01-23T02:47:01.606Z,0.00
2023-01-23T02:48:01.642Z,0.00
2023-01-23T02:49:01.596Z,0.00
2023-01-23T02:50:01.579Z,0.00
2023-01-23T02:51:01.582Z,0.00
2023-01-23T02:52:01.560Z,0.00
2023-01-23T02:53:01.532Z,0.00
2023-01-23T02:54:01.560Z,0.00
2023-01-23T02:55:01.517Z,0.00
2023-01-23T02:56:01.494Z,0.00
2023-01-23T02:57:01.493Z,0.00
2023-01-23T02:58:01.482Z,0.00
2023-01-23T02:59:01.492Z,0.00
2023-01-23T03:00:01.453Z,0.00
2023-01-23T03:01:01.516Z,0.00
2023-01-23T03:02:01.472Z,0.00
2023-01-23T03:03:01.433Z,0.00
2023-01-23T03:04:01.435Z,0.00
2023-01-23T03:05:01.403Z,0.00
2023-01-23T03:06:01.394Z,0.00
2023-01-23T03:07:01.401Z,0.00
2023-01-23T03:08:01.375Z,0.00
2023-01-23T03:09:01.385Z,0.00
2023-01-23T03:10:01.366Z,0.00
2023-01-23T03:11:01.347Z,0.00
2023-01-23T03:12:01.334Z,0.00
2023-01-23T03:13:01.326Z,0.00
2023-01-23T03:14:01.325Z,0.00
2023-01-23T03:15:01.313Z,0.00
2023-01-23T03:16:01.353Z,0.00
2023-01-23T03:17:01.284Z,0.00
2023-01-23T03:18:01.268Z,0.00
2023-01-23T03:19:01.278Z,0.00
2023-01-23T03:20:01.247Z,0.00
2023-01-23T03:21:01.251Z,0.00
2023-01-23T03:22:01.231Z,0.00
2023-01-23T03:23:01.218Z,0.00
2023-01-23T03:24:01.228Z,0.00
2023-01-23T03:25:01.198Z,0.00
2023-01-23T03:26:01.189Z,0.00
2023-01-23T03:27:01.181Z,0.00
2023-01-23T03:28:01.174Z,0.00
2023-01-23T03:29:01.192Z,0.00
2023-01-23T03:30:01.167Z,0.00
2023-01-23T03:31:01.209Z,0.00
2023-01-23T03:32:01.120Z,0.00
2023-01-23T03:33:01.122Z,0.00
2023-01-23T03:34:01.126Z,0.00
2023-01-23T03:35:01.110Z,0.00
2023-01-23T03:36:01.100Z,0.00
2023-01-23T03:37:01.082Z,0.00
2023-01-23T03:38:01.063Z,0.00
2023-01-23T03:39:01.072Z,0.00
2023-01-23T03:40:01.051Z,0.00
2023-01-23T03:41:01.037Z,0.00
2023-01-23T03:42:01.024Z,0.00
2023-01-23T03:43:01.025Z,0.00
2023-01-23T03:44:01.022Z,0.00
2023-01-23T03:45:00.995Z,0.00
2023-01-23T03:46:01.002Z,0.00
2023-01-23T03:47:00.974Z,0.00
2023-01-23T03:48:00.954Z,0.00
2023-01-23T03:49:00.967Z,0.00
2023-01-23T03:50:00.944Z,0.00
2023-01-23T03:51:00.960Z,0.00
2023-01-23T03:52:00.922Z,0.00
2023-01-23T03:53:00.920Z,0.00
2023-01-23T03:54:00.921Z,0.00
2023-01-23T03:55:00.906Z,0.00
2023-01-23T03:56:00.878Z,0.00
2023-01-23T03:57:00.871Z,0.00
2023-01-23T03:58:00.860Z,0.00
2023-01-23T03:59:00.871Z,0.00
2023-01-23T04:00:00.870Z,0.00
2023-01-23T04:01:00.874Z,0.00
2023-01-23T04:02:00.817Z,0.00
2023-01-23T04:03:00.899Z,0.00
2023-01-23T04:04:00.810Z,0.00
2023-01-23T04:05:00.790Z,0.00
2023-01-23T04:06:00.769Z,0.00
2023-01-23T04:07:00.776Z,0.00
2023-01-23T04:08:00.763Z,0.00
2023-01-23T04:09:00.784Z,0.00
2023-01-23T04:10:00.746Z,0.00
2023-01-23T04:11:00.731Z,0.00
2023-01-23T04:12:00.726Z,0.00
2023-01-23T04:13:00.703Z,0.00
2023-01-23T04:14:00.711Z,0.00
2023-01-23T04:15:00.699Z,0.00
2023-01-23T04:16:00.673Z,0.00
2023-01-23T04:17:00.661Z,0.00
2023-01-23T04:18:00.662Z,0.00
2023-01-23T04:19:00.666Z,0.00
2023-01-23T04:20:00.654Z,0.00
2023-01-23T04:21:00.623Z,0.00
2023-01-23T04:22:00.611Z,0.00
2023-01-23T04:23:00.606Z,0.00
2023-01-23T04:24:00.606Z,0.00
2023-01-23T04:25:00.600Z,0.00
2023-01-23T04:26:00.575Z,0.00
2023-01-23T04:27:00.574Z,0.00
2023-01-23T04:28:00.549Z,0.00
2023-01-23T04:29:00.563Z,0.00
2023-01-23T04:30:00.537Z,0.00
2023-01-23T04:31:01.561Z,0.00
2023-01-23T04:32:00.510Z,0.00
2023-01-23T04:33:00.500Z,0.00
2023-01-23T04:34:00.489Z,0.00
2023-01-23T04:35:00.502Z,0.00
2023-01-23T04:36:00.477Z,0.00
2023-01-23T04:37:00.458Z,0.00
2023-01-23T04:38:00.448Z,0.00
2023-01-23T04:39:00.440Z,0.00
2023-01-23T04:40:00.463Z,0.00
2023-01-23T04:41:00.409Z,0.00
2023-01-23T04:42:00.427Z,0.00
2023-01-23T04:43:00.399Z,0.00
2023-01-23T04:44:00.392Z,0.00
2023-01-23T04:45:00.399Z,0.00
2023-01-23T04:46:00.433Z,0.00
2023-01-23T04:47:00.362Z,0.00
2023-01-23T04:48:00.351Z,0.00
2023-01-23T04:49:00.352Z,0.00
2023-01-23T04:50:00.346Z,0.00
2023-01-23T04:51:00.352Z,0.00
2023-01-23T04:52:00.300Z,0.00
2023-01-23T04:53:00.292Z,0.00
2023-01-23T04:54:00.295Z,0.00
2023-01-23T04:55:00.304Z,0.00
2023-01-23T04:56:00.268Z,0.00
2023-01-23T04:57:00.253Z,0.00
2023-01-23T04:58:00.244Z,0.00
2023-01-23T04:59:00.226Z,0.00
2023-01-23T05:00:00.712Z,0.00
2023-01-23T05:01:00.385Z,0.00
2023-01-23T05:02:00.206Z,0.00
2023-01-23T05:03:00.185Z,0.00
2023-01-23T05:04:00.181Z,0.00
2023-01-23T05:05:00.196Z,0.00
2023-01-23T05:06:00.158Z,0.00
2023-01-23T05:07:00.154Z,0.00
2023-01-23T05:08:00.168Z,0.00
2023-01-23T05:09:00.128Z,0.00
2023-01-23T05:10:00.170Z,0.00
2023-01-23T05:11:00.125Z,0.00
2023-01-23T05:12:00.109Z,0.00
2023-01-23T05:13:00.085Z,0.00
2023-01-23T05:14:00.110Z,0.00
2023-01-23T05:15:00.077Z,0.00
2023-01-23T05:16:00.116Z,0.00
2023-01-23T05:17:00.044Z,0.00
2023-01-23T05:18:00.045Z,0.00
2023-01-23T05:19:00.037Z,0.00
2023-01-23T05:20:00.036Z,0.00
2023-01-23T05:21:00.017Z,0.00
2023-01-23T05:22:00.002Z,0.00
2023-01-23T05:22:59.983Z,0.00
2023-01-23T05:23:59.981Z,0.00
2023-01-23T05:24:59.990Z,0.00
2023-01-23T05:25:59.951Z,0.00
2023-01-23T05:26:59.955Z,0.00
2023-01-23T05:27:59.944Z,0.00
2023-01-23T05:28:59.919Z,0.00
2023-01-23T05:29:59.944Z,0.00
2023-01-23T05:30:59.966Z,0.00
2023-01-23T05:31:59.897Z,0.00
2023-01-23T05:32:59.883Z,0.00
2023-01-23T05:33:59.872Z,0.00
2023-01-23T05:34:59.894Z,0.00
2023-01-23T05:35:59.854Z,0.00
2023-01-23T05:36:59.844Z,0.00
2023-01-23T05:37:59.835Z,0.00
2023-01-23T05:38:59.813Z,0.00
2023-01-23T05:39:59.824Z,0.00
2023-01-23T05:40:59.801Z,0.00
2023-01-23T05:41:59.787Z,0.00
2023-01-23T05:42:59.775Z,0.00
2023-01-23T05:43:59.777Z,0.00
2023-01-23T05:44:59.767Z,0.00
2023-01-23T05:45:59.761Z,0.00
2023-01-23T05:46:59.736Z,0.00
2023-01-23T05:47:59.727Z,0.00
2023-01-23T05:48:59.720Z,0.00
2023-01-23T05:49:59.721Z,0.00
2023-01-23T05:50:59.713Z,0.00
2023-01-23T05:51:59.701Z,0.00
2023-01-23T05:52:59.707Z,0.00
2023-01-23T05:53:59.679Z,0.00
2023-01-23T05:54:59.669Z,0.00
2023-01-23T05:55:59.648Z,0.00
2023-01-23T05:56:59.628Z,0.00
2023-01-23T05:57:59.630Z,0.00
2023-01-23T05:58:59.609Z,0.00
2023-01-23T05:59:59.620Z,0.00
2023-01-23T06:00:59.616Z,0.00
2023-01-23T06:01:59.595Z,0.00
2023-01-23T06:02:59.573Z,0.00
2023-01-23T06:03:59.587Z,0.00
2023-01-23T06:04:59.572Z,0.00
2023-01-23T06:05:59.542Z,0.00
2023-01-23T06:06:59.532Z,0.00
2023-01-23T06:07:59.522Z,0.00
2023-01-23T06:08:59.517Z,0.00
2023-01-23T06:09:59.523Z,0.00
2023-01-23T06:10:59.497Z,0.00
2023-01-23T06:11:59.484Z,0.00
2023-01-23T06:12:59.465Z,0.00
2023-01-23T06:13:59.464Z,0.00
2023-01-23T06:14:59.460Z,0.00
2023-01-23T06:15:59.521Z,0.00
2023-01-23T06:16:59.427Z,0.00
2023-01-23T06:17:59.472Z,0.00
2023-01-23T06:18:59.409Z,0.00
2023-01-23T06:19:59.414Z,0.00
2023-01-23T06:20:59.384Z,0.00
2023-01-23T06:21:59.384Z,0.00
2023-01-23T06:22:59.378Z,0.00
2023-01-23T06:23:59.357Z,0.00
2023-01-23T06:24:59.358Z,0.00
2023-01-23T06:25:59.340Z,0.00
2023-01-23T06:26:59.317Z,0.00
2023-01-23T06:27:59.315Z,0.00
2023-01-23T06:28:59.300Z,0.00
2023-01-23T06:29:59.308Z,0.00
2023-01-23T06:30:59.344Z,0.00
2023-01-23T06:31:59.279Z,0.00
2023-01-23T06:32:59.375Z,0.00
2023-01-23T06:33:59.266Z,0.00
2023-01-23T06:34:59.258Z,0.00
2023-01-23T06:35:59.229Z,0.00
2023-01-23T06:36:59.220Z,0.00
2023-01-23T06:37:59.212Z,0.00
2023-01-23T06:38:59.226Z,0.00
2023-01-23T06:39:59.215Z,0.00
2023-01-23T06:40:59.189Z,0.00
2023-01-23T06:41:59.195Z,0.00
2023-01-23T06:42:59.160Z,0.00
2023-01-23T06:43:59.158Z,0.00
2023-01-23T06:44:59.152Z,0.00
2023-01-23T06:45:59.134Z,0.00
2023-01-23T06:46:59.121Z,0.00
2023-01-23T06:47:59.139Z,0.00
2023-01-23T06:48:59.107Z,0.00
2023-01-23T06:49:59.131Z,0.00
2023-01-23T06:50:59.107Z,0.00
2023-01-23T06:51:59.071Z,0.00
2023-01-23T06:52:59.056Z,0.00
2023-01-23T06:53:59.054Z,0.00
2023-01-23T06:54:59.045Z,0.00
2023-01-23T06:55:59.028Z,0.00
2023-01-23T06:56:59.016Z,0.00
2023-01-23T06:57:58.979Z,1.00
2023-01-23T06:58:58.934Z,1.00
2023-01-23T06:59:59.007Z,0.00
2023-01-23T07:00:58.969Z,0.00
2023-01-23T07:01:59.037Z,0.00
2023-01-23T07:02:59.052Z,0.00
2023-01-23T07:03:58.897Z,2.00
2023-01-23T07:04:58.895Z,1.00
2023-01-23T07:05:58.884Z,1.00
2023-01-23T07:06:58.908Z,0.00
2023-01-23T07:07:58.867Z,2.00
2023-01-23T07:08:58.839Z,1.00
2023-01-23T07:09:58.869Z,1.00
2023-01-23T07:10:58.822Z,1.00
2023-01-23T07:11:58.816Z,4.00
2023-01-23T07:12:58.804Z,3.00
2023-01-23T07:13:58.797Z,5.00
2023-01-23T07:14:58.792Z,4.00
2023-01-23T07:15:58.813Z,3.00
2023-01-23T07:16:58.761Z,2.00
2023-01-23T07:17:58.751Z,2.00
2023-01-23T07:18:58.746Z,2.00
2023-01-23T07:19:58.749Z,2.00
2023-01-23T07:20:58.715Z,5.00
2023-01-23T07:21:58.714Z,4.00
2023-01-23T07:22:58.714Z,5.00
2023-01-23T07:23:58.696Z,4.00
2023-01-23T07:24:58.714Z,9.00
2023-01-23T07:25:58.662Z,9.00
2023-01-23T07:26:58.651Z,6.00
2023-01-23T07:27:58.643Z,6.00
2023-01-23T07:28:58.631Z,6.00
2023-01-23T07:29:58.643Z,11.00
2023-01-23T07:30:58.722Z,9.00
2023-01-23T07:31:58.604Z,7.00
2023-01-23T07:32:58.591Z,7.00
2023-01-23T07:33:58.585Z,6.00
2023-01-23T07:34:58.586Z,8.00
2023-01-23T07:35:58.561Z,11.00
2023-01-23T07:36:58.554Z,11.00
2023-01-23T07:37:58.535Z,10.00
2023-01-23T07:38:58.530Z,10.00
2023-01-23T07:39:58.537Z,7.00
2023-01-23T07:40:58.507Z,7.00
2023-01-23T07:41:58.505Z,7.00
2023-01-23T07:42:58.497Z,7.00
2023-01-23T07:43:58.476Z,8.00
2023-01-23T07:44:58.472Z,9.00
2023-01-23T07:45:58.467Z,10.00
2023-01-23T07:46:58.438Z,15.00
2023-01-23T07:47:58.437Z,13.00
2023-01-23T07:48:58.446Z,17.00
2023-01-23T07:49:58.424Z,16.00
2023-01-23T07:50:58.458Z,18.00
2023-01-23T07:51:58.412Z,15.00
2023-01-23T07:52:58.400Z,16.00
2023-01-23T07:53:58.371Z,17.00
2023-01-23T07:54:58.361Z,17.00
2023-01-23T07:55:58.375Z,17.00
2023-01-23T07:56:58.346Z,18.00
2023-01-23T07:57:58.338Z,19.00
2023-01-23T07:58:58.326Z,21.00
2023-01-23T07:59:58.325Z,21.00
2023-01-23T08:00:58.427Z,18.00
2023-01-23T08:01:58.296Z,16.00
2023-01-23T08:02:58.283Z,22.00
2023-01-23T08:03:58.378Z,21.00
2023-01-23T08:04:58.253Z,21.00
2023-01-23T08:05:58.265Z,27.00
2023-01-23T08:06:58.232Z,30.00
2023-01-23T08:08:12.116Z,24.00
2023-01-23T08:08:59.224Z,27.00
2023-01-23T08:09:58.224Z,23.00
2023-01-23T08:10:58.206Z,25.00
2023-01-23T08:11:58.194Z,27.00
2023-01-23T08:12:58.166Z,24.00
2023-01-23T08:13:58.166Z,24.00
2023-01-23T08:14:58.155Z,27.00
2023-01-23T08:15:58.245Z,32.00
2023-01-23T08:16:58.148Z,30.00
2023-01-23T08:17:58.147Z,26.00
2023-01-23T08:18:58.131Z,26.00
2023-01-23T08:19:58.107Z,32.00
2023-01-23T08:20:58.117Z,32.00
2023-01-23T08:21:58.089Z,30.00
2023-01-23T08:22:58.062Z,24.00
2023-01-23T08:23:58.073Z,27.00
2023-01-23T08:24:58.055Z,29.00
2023-01-23T08:25:58.058Z,31.00
2023-01-23T08:26:58.020Z,34.00
2023-01-23T08:27:58.018Z,27.00
2023-01-23T08:28:58.011Z,28.00
2023-01-23T08:29:58.023Z,29.00
2023-01-23T08:30:58.026Z,32.00
2023-01-23T08:31:58.066Z,27.00
2023-01-23T08:32:57.961Z,34.00
2023-01-23T08:33:57.963Z,31.00
2023-01-23T08:34:57.950Z,33.00
2023-01-23T08:35:57.971Z,36.00
2023-01-23T08:36:57.932Z,38.00
2023-01-23T08:37:57.933Z,36.00
2023-01-23T08:38:57.901Z,38.00
2023-01-23T08:39:57.890Z,45.00
2023-01-23T08:40:57.899Z,45.00
2023-01-23T08:41:57.873Z,35.00
2023-01-23T08:42:57.874Z,33.00
2023-01-23T08:43:57.862Z,39.00
2023-01-23T08:44:57.842Z,33.00
2023-01-23T08:45:57.911Z,31.00
2023-01-23T08:46:57.834Z,36.00
2023-01-23T08:47:57.820Z,31.00
2023-01-23T08:48:57.812Z,33.00
2023-01-23T08:49:57.800Z,35.00
2023-01-23T08:50:57.828Z,43.00
2023-01-23T08:51:57.785Z,39.00
2023-01-23T08:52:57.784Z,33.00
2023-01-23T08:53:57.747Z,33.00
2023-01-23T08:54:57.736Z,34.00
2023-01-23T08:55:57.736Z,36.00
2023-01-23T08:56:57.727Z,36.00
2023-01-23T08:57:57.708Z,47.00
2023-01-23T08:58:57.707Z,47.00
2023-01-23T08:59:57.700Z,45.00
2023-01-23T09:00:57.747Z,47.00
2023-01-23T09:01:57.685Z,50.00
2023-01-23T09:02:57.656Z,51.00
2023-01-23T09:03:57.651Z,49.00
2023-01-23T09:04:57.638Z,48.00
2023-01-23T09:05:57.637Z,41.00
2023-01-23T09:06:57.620Z,51.00
2023-01-23T09:07:59.069Z,54.00
2023-01-23T09:08:57.597Z,54.00
2023-01-23T09:09:57.585Z,65.00
2023-01-23T09:10:57.590Z,48.00
2023-01-23T09:11:57.558Z,54.00
2023-01-23T09:12:57.558Z,69.00
2023-01-23T09:13:57.542Z,61.00
2023-01-23T09:14:57.540Z,58.00
2023-01-23T09:15:57.553Z,55.00
2023-01-23T09:16:57.519Z,67.00
2023-01-23T09:17:57.503Z,64.00
2023-01-23T09:18:57.499Z,67.00
2023-01-23T09:19:57.480Z,72.00
2023-01-23T09:20:57.503Z,77.00
2023-01-23T09:21:57.461Z,74.00
2023-01-23T09:22:57.455Z,75.00
2023-01-23T09:23:57.448Z,81.00
2023-01-23T09:24:57.422Z,70.00
2023-01-23T09:25:57.433Z,72.00
2023-01-23T09:26:57.416Z,72.00
2023-01-23T09:27:57.415Z,82.00
2023-01-23T09:28:57.396Z,81.00
2023-01-23T09:29:57.385Z,80.00
2023-01-23T09:30:57.407Z,78.00
2023-01-23T09:31:57.391Z,63.00
2023-01-23T09:32:57.361Z,76.00
2023-01-23T09:33:57.338Z,76.00
2023-01-23T09:34:57.327Z,63.00
2023-01-23T09:35:57.335Z,64.00
2023-01-23T09:36:57.308Z,88.00
2023-01-23T09:37:58.727Z,74.00
2023-01-23T09:38:57.287Z,70.00
2023-01-23T09:39:58.088Z,65.00
2023-01-23T09:40:57.278Z,74.00
2023-01-23T09:41:57.268Z,80.00
2023-01-23T09:42:57.248Z,63.00
2023-01-23T09:43:57.236Z,79.00
2023-01-23T09:44:57.231Z,66.00
2023-01-23T09:45:57.270Z,83.00
2023-01-23T09:46:57.199Z,98.00
2023-01-23T09:47:57.191Z,82.00
2023-01-23T09:48:57.181Z,73.00
2023-01-23T09:49:57.169Z,108.00
2023-01-23T09:50:57.219Z,119.00
2023-01-23T09:51:57.141Z,92.00
2023-01-23T09:52:57.141Z,82.00
2023-01-23T09:53:57.139Z,95.00
2023-01-23T09:54:57.124Z,100.00
2023-01-23T09:55:58.127Z,99.00
2023-01-23T09:56:57.100Z,96.00
2023-01-23T09:57:57.082Z,86.00
2023-01-23T09:58:57.082Z,78.00
2023-01-23T10:00:01.016Z,81.00
2023-01-23T10:00:57.113Z,75.00
2023-01-23T10:01:57.044Z,85.00
2023-01-23T10:02:57.033Z,80.00
2023-01-23T10:03:57.022Z,86.00
2023-01-23T10:04:57.016Z,107.00
2023-01-23T10:05:57.025Z,87.00
2023-01-23T10:06:56.995Z,91.00
2023-01-23T10:07:56.998Z,91.00
2023-01-23T10:08:56.981Z,88.00
2023-01-23T10:09:58.170Z,97.00
2023-01-23T10:10:56.975Z,89.00
2023-01-23T10:11:56.944Z,97.00
2023-01-23T10:12:56.937Z,99.00
2023-01-23T10:13:56.920Z,104.00
2023-01-23T10:14:56.918Z,109.00
2023-01-23T10:15:56.911Z,93.00
2023-01-23T10:16:56.917Z,101.00
2023-01-23T10:17:59.402Z,125.00
2023-01-23T10:18:56.879Z,117.00
2023-01-23T10:19:56.857Z,107.00
2023-01-23T10:20:56.869Z,94.00
2023-01-23T10:21:56.839Z,91.00
2023-01-23T10:22:56.828Z,102.00
2023-01-23T10:23:56.818Z,125.00
2023-01-23T10:24:56.826Z,120.00
2023-01-23T10:25:56.812Z,95.00
2023-01-23T10:26:56.821Z,94.00
2023-01-23T10:27:56.792Z,84.00
2023-01-23T10:28:56.770Z,96.00
2023-01-23T10:29:56.753Z,120.00
2023-01-23T10:30:56.833Z,110.00
2023-01-23T10:31:56.732Z,99.00
2023-01-23T10:32:56.733Z,79.00
2023-01-23T10:33:56.712Z,136.00
2023-01-23T10:34:56.714Z,135.00
2023-01-23T10:35:56.704Z,105.00
2023-01-23T10:36:56.694Z,172.00
2023-01-23T10:37:56.668Z,154.00
2023-01-23T10:38:56.668Z,113.00
2023-01-23T10:39:56.662Z,99.00
2023-01-23T10:40:56.666Z,98.00
2023-01-23T10:42:02.406Z,97.00
2023-01-23T10:42:57.625Z,124.00
2023-01-23T10:43:56.607Z,181.00
2023-01-23T10:44:56.603Z,154.00
2023-01-23T10:45:56.724Z,127.00
2023-01-23T10:46:56.585Z,155.00
2023-01-23T10:47:57.358Z,165.00
2023-01-23T10:48:56.568Z,139.00
2023-01-23T10:49:56.562Z,120.00
2023-01-23T10:50:56.604Z,124.00
2023-01-23T10:51:56.538Z,142.00
2023-01-23T10:52:56.526Z,139.00
2023-01-23T10:53:57.917Z,128.00
2023-01-23T10:54:56.512Z,148.00
2023-01-23T10:55:56.508Z,145.00
2023-01-23T10:56:56.536Z,103.00
2023-01-23T10:57:56.460Z,101.00
2023-01-23T10:58:56.457Z,153.00
2023-01-23T10:59:56.440Z,160.00
2023-01-23T11:00:56.440Z,137.00
2023-01-23T11:01:57.738Z,108.00
2023-01-23T11:02:56.461Z,115.00
2023-01-23T11:03:56.404Z,147.00
2023-01-23T11:04:56.410Z,154.00
2023-01-23T11:05:56.381Z,164.00
2023-01-23T11:06:56.416Z,164.00
2023-01-23T11:07:56.365Z,149.00
2023-01-23T11:08:56.354Z,152.00
2023-01-23T11:09:56.355Z,154.00
2023-01-23T11:10:56.333Z,157.00
2023-01-23T11:11:56.338Z,144.00
2023-01-23T11:12:56.314Z,144.00
2023-01-23T11:13:56.304Z,164.00
2023-01-23T11:14:56.300Z,167.00
2023-01-23T11:15:56.351Z,152.00
2023-01-23T11:16:56.284Z,145.00
2023-01-23T11:17:56.269Z,151.00
2023-01-23T11:18:56.247Z,133.00
2023-01-23T11:19:56.255Z,177.00
2023-01-23T11:20:56.226Z,181.00
2023-01-23T11:21:56.232Z,173.00
2023-01-23T11:22:56.227Z,179.00
2023-01-23T11:23:56.202Z,179.00
2023-01-23T11:24:56.190Z,187.00
2023-01-23T11:25:56.188Z,196.00
2023-01-23T11:26:56.188Z,199.00
2023-01-23T11:27:56.158Z,188.00
2023-01-23T11:28:56.150Z,206.00
2023-01-23T11:29:56.149Z,207.00
2023-01-23T11:31:12.288Z,201.00
2023-01-23T11:31:57.288Z,200.00
2023-01-23T11:32:56.116Z,201.00
2023-01-23T11:33:56.098Z,193.00
2023-01-23T11:34:56.090Z,211.00
2023-01-23T11:35:56.073Z,211.00
2023-01-23T11:36:56.082Z,216.00
2023-01-23T11:37:56.052Z,184.00
2023-01-23T11:38:56.041Z,171.00
2023-01-23T11:39:56.035Z,189.00
2023-01-23T11:40:56.079Z,162.00
2023-01-23T11:41:56.029Z,163.00
2023-01-23T11:42:56.018Z,166.00
2023-01-23T11:43:55.990Z,157.00
2023-01-23T11:44:55.980Z,157.00
2023-01-23T11:45:56.016Z,144.00
2023-01-23T11:46:55.982Z,163.00
2023-01-23T11:47:55.956Z,163.00
2023-01-23T11:48:55.942Z,156.00
2023-01-23T11:49:55.929Z,140.00
2023-01-23T11:50:56.312Z,131.00
2023-01-23T11:51:55.925Z,138.00
2023-01-23T11:52:55.895Z,121.00
2023-01-23T11:53:55.994Z,127.00
2023-01-23T11:54:55.878Z,139.00
2023-01-23T11:55:55.880Z,132.00
2023-01-23T11:56:55.874Z,148.00
2023-01-23T11:57:55.882Z,121.00
2023-01-23T11:58:55.854Z,97.00
2023-01-23T11:59:55.845Z,86.00
2023-01-23T12:00:55.820Z,103.00
2023-01-23T12:02:03.141Z,124.00
2023-01-23T12:02:56.854Z,120.00
2023-01-23T12:03:55.871Z,111.00
2023-01-23T12:04:55.779Z,111.00
2023-01-23T12:06:56.774Z,112.00
2023-01-23T12:07:55.757Z,121.00
2023-01-23T12:08:55.757Z,124.00
2023-01-23T12:09:55.720Z,126.00
2023-01-23T12:10:55.718Z,115.00
2023-01-23T12:11:58.110Z,115.00
2023-01-23T12:12:55.700Z,111.00
2023-01-23T12:13:55.677Z,124.00
2023-01-23T12:14:55.699Z,139.00
2023-01-23T12:15:55.677Z,147.00
2023-01-23T12:16:55.747Z,149.00
2023-01-23T12:17:55.642Z,139.00
2023-01-23T12:18:55.639Z,136.00
2023-01-23T12:19:55.612Z,128.00
2023-01-23T12:20:55.610Z,121.00
2023-01-23T12:21:55.612Z,110.00
2023-01-23T12:22:55.601Z,109.00
2023-01-23T12:23:55.582Z,111.00
2023-01-23T12:24:55.564Z,125.00
2023-01-23T12:25:55.617Z,128.00
2023-01-23T12:26:55.575Z,122.00
2023-01-23T12:27:55.536Z,123.00
2023-01-23T12:28:55.524Z,125.00
2023-01-23T12:29:55.515Z,136.00
2023-01-23T12:30:55.625Z,133.00
2023-01-23T12:31:55.592Z,118.00
2023-01-23T12:32:55.494Z,132.00
2023-01-23T12:33:55.469Z,132.00
2023-01-23T12:34:55.476Z,139.00
2023-01-23T12:35:55.470Z,132.00
2023-01-23T12:37:08.595Z,135.00
2023-01-23T12:37:56.428Z,137.00
2023-01-23T12:38:55.428Z,132.00
2023-01-23T12:39:55.424Z,139.00
2023-01-23T12:40:55.398Z,132.00
2023-01-23T12:41:55.407Z,131.00
2023-01-23T12:42:55.394Z,127.00
2023-01-23T12:43:55.370Z,120.00
2023-01-23T12:44:56.845Z,136.00
2023-01-23T12:45:55.388Z,142.00
2023-01-23T12:46:55.447Z,147.00
2023-01-23T12:47:55.323Z,143.00
2023-01-23T12:48:55.321Z,147.00
2023-01-23T12:49:55.302Z,135.00
2023-01-23T12:50:55.317Z,129.00
2023-01-23T12:51:55.337Z,130.00
2023-01-23T12:52:55.279Z,143.00
2023-01-23T12:53:56.509Z,130.00
2023-01-23T12:54:55.259Z,137.00
2023-01-23T12:55:55.251Z,141.00
2023-01-23T12:56:55.265Z,143.00
2023-01-23T12:58:09.172Z,120.00
2023-01-23T12:58:56.227Z,124.00
2023-01-23T12:59:55.203Z,131.00
2023-01-23T13:00:55.236Z,132.00
2023-01-23T13:01:55.238Z,113.00
2023-01-23T13:02:56.280Z,102.00